createdAt,value
2023-11-20T00:00:00.291Z,19.19
2023-11-20T00:02:45.266Z,19.21
2023-11-20T00:05:30.495Z,19.17
2023-11-20T00:08:15.296Z,19.14
2023-11-20T00:11:00.460Z,19.14
2023-11-20T00:13:45.643Z,19.15
2023-11-20T00:16:31.430Z,19.27
2023-11-20T00:19:16.764Z,19.36
2023-11-20T00:22:01.583Z,19.42
2023-11-20T00:24:46.670Z,19.47
2023-11-20T00:27:31.656Z,19.42
2023-11-20T00:30:19.120Z,19.47
2023-11-20T00:33:04.533Z,19.45
2023-11-20T00:35:49.503Z,19.39
2023-11-20T00:38:34.590Z,19.25
2023-11-20T00:41:19.533Z,19.21
2023-11-20T00:44:05.426Z,19.24
2023-11-20T00:46:50.617Z,19.31
2023-11-20T00:49:37.702Z,19.35
2023-11-20T00:52:22.661Z,19.39
2023-11-20T00:55:08.372Z,19.45
2023-11-20T00:57:53.377Z,19.49
2023-11-20T01:00:38.882Z,19.51
2023-11-20T01:03:24.235Z,19.52
2023-11-20T01:06:10.832Z,19.49
2023-11-20T01:08:56.295Z,19.49
2023-11-20T01:11:42.201Z,19.34
2023-11-20T01:14:27.206Z,19.35
2023-11-20T01:17:12.596Z,19.27
2023-11-20T01:19:57.469Z,19.21
2023-11-20T01:22:43.065Z,19.17
2023-11-20T01:25:28.612Z,19.06
2023-11-20T01:28:13.779Z,18.97
2023-11-20T01:31:23.916Z,18.94
2023-11-20T01:34:09.033Z,19.08
2023-11-20T01:36:54.260Z,19.11
2023-11-20T01:39:40.008Z,19.12
2023-11-20T01:42:24.807Z,19.11
2023-11-20T01:45:10.767Z,19.18
2023-11-20T01:47:56.097Z,19.19
2023-11-20T01:50:41.358Z,19.19
2023-11-20T01:53:29.205Z,19.24
2023-11-20T01:56:15.906Z,19.25
2023-11-20T01:59:03.999Z,19.27
2023-11-20T02:01:49.064Z,19.27
2023-11-20T02:04:35.453Z,19.34
2023-11-20T02:07:20.336Z,19.29
2023-11-20T02:10:07.859Z,19.31
2023-11-20T02:12:54.354Z,19.35
2023-11-20T02:15:39.626Z,19.39
2023-11-20T02:18:30.446Z,19.41
2023-11-20T02:21:15.456Z,19.39
2023-11-20T02:24:00.413Z,19.44
2023-11-20T02:27:02.168Z,19.54
2023-11-20T02:29:52.237Z,19.52
2023-11-20T02:32:37.440Z,19.55
2023-11-20T02:35:22.449Z,19.57
2023-11-20T02:38:07.846Z,19.54
2023-11-20T02:40:52.599Z,19.48
2023-11-20T02:43:37.663Z,19.47
2023-11-20T02:46:23.470Z,19.47
2023-11-20T02:49:08.464Z,19.48
2023-11-20T02:51:54.016Z,19.51
2023-11-20T02:54:39.125Z,19.54
2023-11-20T02:57:24.422Z,19.49
2023-11-20T03:00:11.584Z,19.45
2023-11-20T03:02:57.178Z,19.42
2023-11-20T03:05:42.693Z,19.52
2023-11-20T03:08:27.789Z,19.61
2023-11-20T03:11:14.041Z,19.66
2023-11-20T03:13:59.419Z,19.69
2023-11-20T03:16:44.655Z,19.76
2023-11-20T03:19:30.692Z,19.78
2023-11-20T03:22:15.960Z,19.82
2023-11-20T03:25:01.147Z,19.86
2023-11-20T03:27:47.304Z,19.80
2023-11-20T03:30:32.429Z,19.80
2023-11-20T03:33:17.639Z,19.80
2023-11-20T03:36:05.285Z,19.86
2023-11-20T03:38:51.647Z,19.90
2023-11-20T03:41:38.237Z,19.87
2023-11-20T03:44:22.905Z,19.87
2023-11-20T03:47:08.060Z,19.85
2023-11-20T03:49:53.338Z,19.83
2023-11-20T03:52:38.875Z,19.87
2023-11-20T03:55:23.967Z,19.90
2023-11-20T03:58:09.112Z,19.92
2023-11-20T04:00:54.561Z,19.92
2023-11-20T04:03:41.075Z,19.92
2023-11-20T04:06:26.193Z,19.93
2023-11-20T04:09:11.839Z,19.93
2023-11-20T04:11:56.798Z,19.94
2023-11-20T04:14:41.886Z,19.96
2023-11-20T04:17:26.874Z,19.99
2023-11-20T04:20:12.758Z,20.05
2023-11-20T04:22:58.602Z,20.09
2023-11-20T04:25:44.327Z,20.16
2023-11-20T04:28:54.364Z,20.23
2023-11-20T04:31:38.948Z,20.19
2023-11-20T04:34:25.162Z,20.16
2023-11-20T04:37:10.265Z,20.13
2023-11-20T04:39:55.116Z,20.09
2023-11-20T04:42:40.692Z,20.06
2023-11-20T04:45:25.944Z,20.08
2023-11-20T04:48:11.035Z,20.08
2023-11-20T04:50:55.820Z,20.08
2023-11-20T04:53:43.578Z,20.08
2023-11-20T04:56:28.658Z,20.10
2023-11-20T04:59:14.337Z,20.10
2023-11-20T05:01:59.846Z,20.09
2023-11-20T05:04:45.122Z,20.06
2023-11-20T05:07:29.893Z,20.08
2023-11-20T05:10:16.119Z,20.06
2023-11-20T05:13:01.185Z,20.06
2023-11-20T05:15:46.569Z,20.13
2023-11-20T05:18:31.613Z,20.13
2023-11-20T05:21:16.979Z,20.10
2023-11-20T05:24:02.809Z,20.09
2023-11-20T05:26:48.650Z,20.12
2023-11-20T05:29:34.480Z,20.03
2023-11-20T05:32:20.653Z,19.97
2023-11-20T05:38:18.820Z,19.89
2023-11-20T05:41:04.777Z,19.89
2023-11-20T05:43:49.983Z,19.93
2023-11-20T05:46:36.683Z,19.97
2023-11-20T05:49:23.680Z,20.01
2023-11-20T05:52:09.038Z,20.08
2023-11-20T05:54:54.006Z,20.09
2023-11-20T05:57:39.057Z,20.10
2023-11-20T06:00:23.916Z,20.13
2023-11-20T06:03:09.037Z,20.08
2023-11-20T06:05:54.968Z,19.96
2023-11-20T06:08:40.046Z,19.86
2023-11-20T06:11:25.652Z,19.82
2023-11-20T06:14:10.784Z,19.85
2023-11-20T06:16:55.502Z,19.80
2023-11-20T06:19:40.617Z,19.79
2023-11-20T06:22:26.268Z,19.76
2023-11-20T06:25:11.422Z,19.76
2023-11-20T06:31:06.612Z,19.78
2023-11-20T06:33:51.871Z,19.78
2023-11-20T06:36:38.253Z,19.79
2023-11-20T06:39:23.974Z,19.83
2023-11-20T06:42:09.019Z,19.87
2023-11-20T06:44:54.076Z,19.87
2023-11-20T06:47:39.155Z,19.89
2023-11-20T06:50:24.432Z,19.89
2023-11-20T06:53:09.098Z,19.92
2023-11-20T06:55:54.538Z,19.93
2023-11-20T06:58:39.424Z,19.96
2023-11-20T07:01:24.453Z,19.99
2023-11-20T07:04:09.587Z,20.01
2023-11-20T07:06:54.442Z,19.97
2023-11-20T07:09:39.507Z,20.00
2023-11-20T07:12:25.096Z,20.06
2023-11-20T07:15:10.370Z,20.09
2023-11-20T07:17:55.369Z,20.13
2023-11-20T07:20:40.512Z,20.19
2023-11-20T07:23:25.418Z,20.21
2023-11-20T07:26:16.587Z,20.29
2023-11-20T07:29:02.409Z,20.30
2023-11-20T07:31:47.469Z,20.30
2023-11-20T07:34:32.330Z,20.39
2023-11-20T07:37:17.430Z,20.36
2023-11-20T07:40:02.858Z,20.41
2023-11-20T07:42:49.343Z,20.43
2023-11-20T07:45:35.155Z,20.47
2023-11-20T07:48:20.316Z,20.52
2023-11-20T07:51:05.926Z,20.52
2023-11-20T07:54:16.469Z,20.48
2023-11-20T07:57:03.132Z,20.45
2023-11-20T07:59:48.381Z,20.43
2023-11-20T08:02:34.417Z,20.47
2023-11-20T08:05:20.609Z,20.51
2023-11-20T08:08:05.440Z,20.54
2023-11-20T08:10:50.567Z,20.48
2023-11-20T08:13:35.505Z,20.43
2023-11-20T08:16:20.606Z,20.40
2023-11-20T08:19:06.259Z,20.33
2023-11-20T08:21:51.704Z,20.20
2023-11-20T08:24:36.764Z,20.10
2023-11-20T08:27:21.685Z,20.09
2023-11-20T08:30:08.736Z,20.12
2023-11-20T08:32:53.704Z,20.19
2023-11-20T08:35:39.801Z,20.21
2023-11-20T08:38:25.135Z,20.13
2023-11-20T08:41:10.050Z,20.03
2023-11-20T08:43:55.188Z,19.96
2023-11-20T08:46:40.082Z,19.90
2023-11-20T08:49:25.373Z,19.93
2023-11-20T08:52:11.448Z,20.08
2023-11-20T08:54:57.127Z,20.17
2023-11-20T08:57:42.353Z,20.36
2023-11-20T09:00:27.164Z,20.45
2023-11-20T09:03:12.127Z,20.55
2023-11-20T09:05:56.758Z,20.68
2023-11-20T09:08:42.308Z,20.80
2023-11-20T09:11:27.296Z,20.78
2023-11-20T09:14:12.740Z,20.78
2023-11-20T09:16:57.495Z,20.82
2023-11-20T09:19:42.479Z,20.92
2023-11-20T09:22:27.530Z,20.95
2023-11-20T09:25:13.269Z,21.02
2023-11-20T09:27:58.637Z,21.11
2023-11-20T09:31:16.776Z,21.21
2023-11-20T09:34:02.172Z,21.28
2023-11-20T09:36:47.467Z,21.41
2023-11-20T09:39:32.342Z,21.46
2023-11-20T09:42:23.129Z,21.54
2023-11-20T09:45:25.611Z,21.54
2023-11-20T09:48:13.810Z,21.39
2023-11-20T09:51:07.189Z,21.32
2023-11-20T09:54:23.977Z,21.33
2023-11-20T09:57:09.994Z,21.35
2023-11-20T09:59:55.692Z,21.35
2023-11-20T10:02:41.251Z,21.36
2023-11-20T10:05:34.931Z,21.39
2023-11-20T10:08:21.176Z,21.41
2023-11-20T10:11:07.920Z,21.50
2023-11-20T10:13:52.619Z,21.62
2023-11-20T10:16:39.502Z,21.83
2023-11-20T10:19:24.899Z,21.97
2023-11-20T10:22:09.761Z,22.04
2023-11-20T10:24:55.753Z,22.11
2023-11-20T10:27:41.006Z,22.22
2023-11-20T10:30:26.153Z,22.37
2023-11-20T10:33:19.519Z,22.51
2023-11-20T10:36:12.334Z,22.64
2023-11-20T10:38:57.583Z,22.56
2023-11-20T10:41:43.538Z,22.52
2023-11-20T10:44:28.661Z,22.51
2023-11-20T10:47:13.778Z,22.47
2023-11-20T10:49:59.788Z,22.44
2023-11-20T10:52:45.161Z,22.47
2023-11-20T10:55:38.719Z,22.40
2023-11-20T10:58:29.053Z,22.25
2023-11-20T11:01:14.566Z,22.17
2023-11-20T11:04:00.717Z,22.01
2023-11-20T11:06:49.012Z,21.92
2023-11-20T11:09:37.890Z,21.83
2023-11-20T11:12:27.943Z,21.80
2023-11-20T11:15:14.554Z,21.73
2023-11-20T11:18:04.642Z,21.74
2023-11-20T11:20:54.726Z,21.73
2023-11-20T11:23:49.342Z,21.67
2023-11-20T11:26:53.467Z,21.70
2023-11-20T11:29:45.939Z,21.67
2023-11-20T11:32:59.843Z,21.76
2023-11-20T11:36:22.425Z,21.74
2023-11-20T11:39:18.195Z,21.67
2023-11-20T11:42:10.660Z,21.79
2023-11-20T11:45:05.378Z,21.84
2023-11-20T11:47:51.089Z,21.83
2023-11-20T11:50:36.043Z,21.77
2023-11-20T11:53:21.002Z,21.72
2023-11-20T11:56:15.632Z,21.72
2023-11-20T11:59:05.989Z,21.67
2023-11-20T12:01:50.927Z,21.62
2023-11-20T12:05:05.956Z,21.60
2023-11-20T12:07:54.245Z,21.53
2023-11-20T12:10:47.863Z,21.56
2023-11-20T12:13:33.728Z,21.42
2023-11-20T12:16:18.956Z,21.29
2023-11-20T12:19:04.086Z,21.25
2023-11-20T12:21:49.893Z,21.22
2023-11-20T12:24:35.666Z,21.23
2023-11-20T12:27:21.201Z,21.22
2023-11-20T12:30:10.465Z,21.19
2023-11-20T12:32:55.450Z,21.11
2023-11-20T12:35:42.650Z,21.13
2023-11-20T12:38:30.565Z,21.06
2023-11-20T12:41:17.195Z,20.96
2023-11-20T12:44:02.617Z,20.88
2023-11-20T12:46:49.204Z,20.85
2023-11-20T12:49:34.185Z,20.84
2023-11-20T12:52:19.245Z,20.87
2023-11-20T12:55:07.752Z,20.87
2023-11-20T12:57:53.969Z,20.85
2023-11-20T13:00:40.577Z,20.90
2023-11-20T13:03:28.073Z,21.02
2023-11-20T13:06:13.381Z,21.08
2023-11-20T13:08:58.506Z,21.16
2023-11-20T13:11:44.399Z,21.28
2023-11-20T13:14:29.652Z,21.36
2023-11-20T13:17:17.184Z,21.43
2023-11-20T13:20:04.457Z,21.47
2023-11-20T13:22:49.841Z,21.50
2023-11-20T13:25:36.174Z,21.62
2023-11-20T13:28:22.960Z,21.70
2023-11-20T13:31:10.243Z,21.77
2023-11-20T13:33:55.830Z,21.86
2023-11-20T13:36:42.327Z,21.92
2023-11-20T13:39:27.797Z,21.93
2023-11-20T13:42:12.948Z,21.89
2023-11-20T13:44:58.335Z,21.90
2023-11-20T13:47:43.215Z,21.89
2023-11-20T13:50:27.979Z,21.90
2023-11-20T13:53:14.749Z,21.86
2023-11-20T13:56:00.146Z,21.89
2023-11-20T13:58:47.394Z,21.89
2023-11-20T14:01:34.116Z,21.87
2023-11-20T14:04:19.719Z,21.84
2023-11-20T14:07:04.901Z,21.86
2023-11-20T14:09:50.723Z,21.84
2023-11-20T14:12:36.091Z,21.80
2023-11-20T14:15:21.222Z,21.76
2023-11-20T14:18:06.578Z,21.74
2023-11-20T14:20:51.950Z,21.72
2023-11-20T14:23:38.956Z,21.67
2023-11-20T14:26:31.787Z,21.62
2023-11-20T14:29:19.279Z,21.53
2023-11-20T14:32:04.895Z,21.42
2023-11-20T14:37:59.886Z,21.05
2023-11-20T14:40:45.046Z,20.99
2023-11-20T14:43:30.962Z,20.94
2023-11-20T14:46:16.586Z,20.88
2023-11-20T14:49:02.045Z,20.88
2023-11-20T14:51:48.928Z,20.90
2023-11-20T14:54:34.261Z,20.88
2023-11-20T14:57:20.983Z,20.84
2023-11-20T15:00:11.161Z,20.82
2023-11-20T15:02:56.643Z,20.72
2023-11-20T15:05:42.373Z,20.67
2023-11-20T15:08:27.559Z,20.60
2023-11-20T15:11:13.163Z,20.61
2023-11-20T15:13:58.233Z,20.57
2023-11-20T15:16:44.273Z,20.51
2023-11-20T15:19:29.898Z,20.43
2023-11-20T15:22:14.850Z,20.39
2023-11-20T15:24:59.944Z,20.41
2023-11-20T15:27:45.669Z,20.43
2023-11-20T15:30:30.938Z,20.39
2023-11-20T15:33:17.038Z,20.39
2023-11-20T15:36:02.922Z,20.33
2023-11-20T15:38:48.084Z,20.26
2023-11-20T15:41:34.465Z,20.24
2023-11-20T15:44:19.740Z,20.14
2023-11-20T15:47:05.659Z,20.09
2023-11-20T15:49:51.644Z,20.01
2023-11-20T15:52:37.484Z,19.90
2023-11-20T15:55:23.062Z,19.86
2023-11-20T15:58:08.356Z,19.80
2023-11-20T16:00:53.940Z,19.78
2023-11-20T16:03:39.463Z,19.72
2023-11-20T16:06:25.746Z,19.65
2023-11-20T16:09:11.195Z,19.62
2023-11-20T16:11:56.589Z,19.55
2023-11-20T16:14:41.886Z,19.51
2023-11-20T16:17:27.128Z,19.48
2023-11-20T16:20:13.064Z,19.49
2023-11-20T16:22:58.637Z,19.54
2023-11-20T16:25:48.231Z,19.48
2023-11-20T16:28:33.817Z,19.44
2023-11-20T16:31:19.145Z,19.39
2023-11-20T16:34:04.692Z,19.35
2023-11-20T16:36:49.790Z,19.32
2023-11-20T16:39:35.766Z,19.29
2023-11-20T16:42:21.538Z,19.27
2023-11-20T16:45:32.418Z,19.22
2023-11-20T16:48:18.801Z,19.24
2023-11-20T16:51:05.016Z,19.27
2023-11-20T16:54:15.165Z,19.18
2023-11-20T16:57:01.062Z,19.21
2023-11-20T16:59:46.384Z,19.25
2023-11-20T17:02:31.411Z,19.29
2023-11-20T17:05:16.913Z,19.34
2023-11-20T17:08:02.077Z,19.35
2023-11-20T17:10:47.319Z,19.41
2023-11-20T17:13:33.451Z,19.44
2023-11-20T17:16:19.268Z,19.42
2023-11-20T17:19:04.654Z,19.39
2023-11-20T17:21:51.605Z,19.35
2023-11-20T17:24:37.186Z,19.25
2023-11-20T17:27:23.056Z,19.22
2023-11-20T17:30:10.671Z,19.15
2023-11-20T17:32:59.752Z,19.12
2023-11-20T17:35:45.000Z,19.08
2023-11-20T17:38:30.268Z,19.10
2023-11-20T17:41:15.248Z,19.04
2023-11-20T17:44:00.298Z,18.91
2023-11-20T17:46:48.103Z,18.84
2023-11-20T17:49:33.682Z,18.83
2023-11-20T17:52:19.254Z,18.78
2023-11-20T17:55:06.897Z,18.86
2023-11-20T17:57:52.060Z,18.90
2023-11-20T18:00:37.365Z,18.91
2023-11-20T18:03:23.216Z,18.94
2023-11-20T18:06:09.706Z,18.96
2023-11-20T18:08:54.978Z,18.94
2023-11-20T18:11:40.973Z,18.93
2023-11-20T18:14:26.038Z,18.88
2023-11-20T18:17:11.096Z,18.87
2023-11-20T18:19:57.066Z,18.77
2023-11-20T18:22:42.092Z,18.78
2023-11-20T18:25:27.343Z,18.77
2023-11-20T18:28:12.630Z,18.76
2023-11-20T18:30:59.185Z,18.63
2023-11-20T18:33:44.757Z,18.52
2023-11-20T18:36:30.778Z,18.46
2023-11-20T18:39:16.612Z,18.39
2023-11-20T18:42:01.780Z,18.29
2023-11-20T18:44:47.363Z,18.32
2023-11-20T18:47:32.646Z,18.33
2023-11-20T18:50:18.709Z,18.40
2023-11-20T18:53:04.909Z,18.37
2023-11-20T18:55:50.492Z,18.40
2023-11-20T18:58:35.590Z,18.36
2023-11-20T19:01:21.311Z,18.40
2023-11-20T19:04:06.651Z,18.37
2023-11-20T19:06:53.402Z,18.42
2023-11-20T19:09:39.259Z,18.32
2023-11-20T19:12:24.327Z,18.26
2023-11-20T19:15:10.553Z,18.21
2023-11-20T19:17:55.599Z,18.15
2023-11-20T19:20:42.101Z,18.18
2023-11-20T19:23:27.168Z,18.21
2023-11-20T19:26:13.683Z,18.28
2023-11-20T19:28:59.232Z,18.33
2023-11-20T19:31:44.552Z,18.35
2023-11-20T19:34:29.779Z,18.33
2023-11-20T19:37:15.182Z,18.39
2023-11-20T19:40:00.787Z,18.33
2023-11-20T19:42:47.061Z,18.37
2023-11-20T19:45:32.378Z,18.33
2023-11-20T19:48:17.807Z,18.25
2023-11-20T19:51:03.515Z,18.15
2023-11-20T19:53:48.501Z,18.12
2023-11-20T19:56:33.593Z,18.06
2023-11-20T19:59:19.337Z,18.05
2023-11-20T20:02:05.617Z,17.94
2023-11-20T20:04:50.548Z,17.94
2023-11-20T20:07:35.780Z,17.91
2023-11-20T20:10:27.366Z,17.86
2023-11-20T20:13:12.675Z,17.81
2023-11-20T20:16:07.431Z,17.75
2023-11-20T20:18:52.624Z,17.64
2023-11-20T20:21:38.160Z,17.63
2023-11-20T20:24:23.130Z,17.68
2023-11-20T20:27:08.302Z,17.60
2023-11-20T20:29:53.478Z,17.34
2023-11-20T20:32:39.211Z,17.27
2023-11-20T20:35:25.466Z,17.24
2023-11-20T20:38:10.925Z,17.13
2023-11-20T20:40:58.309Z,17.16
2023-11-20T20:43:43.630Z,17.16
2023-11-20T20:46:28.524Z,17.13
2023-11-20T20:49:39.374Z,17.22
2023-11-20T20:52:24.861Z,17.20
2023-11-20T20:55:10.147Z,17.20
2023-11-20T20:57:55.105Z,17.23
2023-11-20T21:00:40.668Z,17.26
2023-11-20T21:03:25.808Z,17.27
2023-11-20T21:06:11.902Z,17.31
2023-11-20T21:08:58.489Z,17.22
2023-11-20T21:11:43.573Z,17.26
2023-11-20T21:14:28.698Z,17.27
2023-11-20T21:17:13.758Z,17.22
2023-11-20T21:19:58.750Z,17.14
2023-11-20T21:22:44.594Z,17.00
2023-11-20T21:25:30.299Z,17.10
2023-11-20T21:28:15.449Z,17.14
2023-11-20T21:31:03.490Z,17.26
2023-11-20T21:33:49.764Z,17.37
2023-11-20T21:36:34.952Z,17.48
2023-11-20T21:39:20.688Z,17.48
2023-11-20T21:42:06.219Z,17.55
2023-11-20T21:44:51.146Z,17.47
2023-11-20T21:47:36.415Z,17.43
2023-11-20T21:50:21.572Z,17.40
2023-11-20T21:53:06.917Z,17.43
2023-11-20T21:55:52.604Z,17.50
2023-11-20T21:58:38.314Z,17.51
2023-11-20T22:01:23.806Z,17.51
2023-11-20T22:04:09.314Z,17.51
2023-11-20T22:06:54.156Z,17.47
2023-11-20T22:09:39.313Z,17.50
2023-11-20T22:12:25.210Z,17.55
2023-11-20T22:15:10.677Z,17.50
2023-11-20T22:17:57.423Z,17.55
2023-11-20T22:20:42.432Z,17.44
2023-11-20T22:23:27.652Z,17.43
2023-11-20T22:26:12.810Z,17.43
2023-11-20T22:28:58.771Z,17.45
2023-11-20T22:31:43.931Z,17.31
2023-11-20T22:34:29.478Z,17.27
2023-11-20T22:37:15.060Z,17.26
2023-11-20T22:40:00.037Z,17.17
2023-11-20T22:42:45.020Z,17.22
2023-11-20T22:45:31.333Z,17.16
2023-11-20T22:48:16.663Z,17.10
2023-11-20T22:51:02.015Z,17.00
2023-11-20T22:53:47.077Z,17.06
2023-11-20T22:56:32.723Z,17.06
2023-11-20T22:59:18.174Z,17.03
2023-11-20T23:02:04.519Z,16.97
2023-11-20T23:04:50.069Z,16.83
2023-11-20T23:07:35.164Z,16.68
2023-11-20T23:10:20.503Z,16.48
2023-11-20T23:13:05.461Z,16.42
2023-11-20T23:15:50.623Z,16.44
2023-11-20T23:18:36.417Z,16.44
2023-11-20T23:21:21.685Z,16.42
2023-11-20T23:24:08.024Z,16.44
2023-11-20T23:26:53.182Z,16.44
2023-11-20T23:29:38.400Z,16.49
2023-11-20T23:32:24.229Z,16.51
2023-11-20T23:35:10.170Z,16.47
2023-11-20T23:37:55.387Z,16.38
2023-11-20T23:40:40.570Z,16.35
2023-11-20T23:43:26.606Z,16.18
2023-11-20T23:46:11.648Z,16.12
2023-11-20T23:48:56.554Z,16.05
2023-11-20T23:52:08.348Z,16.00
2023-11-20T23:54:53.498Z,15.96
2023-11-20T23:57:38.601Z,15.93
